Time;durP1;ratioP1;P1;durP2;ratioP2;P2;SDS_P1;SDS_P2;PMS_P1;PMS_P2;Temp;Humidity;BMP_temperature;BMP_pressure;BME280_temperature;BME280_humidity;BME280_pressure;Samples;Min_cycle;Max_cycle;Signal;HPM_P1;HPM_P2
2023/10/25 00:03:12;;;;;;;;;;;10.30;99.90;;;;;;8341611;28;19924;-70
2023/10/25 00:07:17;;;;;;;;;;;10.30;99.90;;;;;;8352805;28;20296;-70
2023/10/25 00:11:18;;;;;;;;;;;10.30;99.90;;;;;;8347734;28;19925;-70
2023/10/25 00:15:21;;;;;;;;;;;10.30;99.90;;;;;;8353601;28;19975;-70
2023/10/25 00:19:23;;;;;;;;;;;10.30;99.90;;;;;;8356651;28;19952;-70
2023/10/25 00:23:25;;;;;;;;;;;10.30;99.90;;;;;;8357467;28;19936;-70
2023/10/25 00:27:26;;;;;;;;;;;10.30;99.90;;;;;;8358777;28;19925;-71
2023/10/25 00:31:28;;;;;;;;;;;10.30;99.90;;;;;;8355999;28;19925;-70
2023/10/25 00:35:29;;;;;;;;;;;10.30;99.90;;;;;;8359336;28;19928;-70
2023/10/25 00:39:31;;;;;;;;;;;10.30;99.90;;;;;;8337589;28;19936;-70
2023/10/25 00:43:33;;;;;;;;;;;10.30;99.90;;;;;;8360773;28;19932;-70
2023/10/25 00:47:35;;;;;;;;;;;10.20;99.90;;;;;;8359058;28;19924;-70
2023/10/25 00:51:37;;;;;;;;;;;10.20;99.90;;;;;;8356252;28;19932;-70
2023/10/25 00:55:39;;;;;;;;;;;10.20;99.90;;;;;;8355368;28;19933;-70
2023/10/25 00:59:41;;;;;;;;;;;10.10;99.90;;;;;;8356095;28;19933;-70
2023/10/25 01:03:43;;;;;;;;;;;10.00;99.90;;;;;;8363860;28;19925;-70
2023/10/25 01:07:44;;;;;;;;;;;9.90;99.90;;;;;;8353684;28;20399;-70
2023/10/25 01:11:46;;;;;;;;;;;9.90;99.90;;;;;;8344714;28;19947;-70
2023/10/25 01:15:48;;;;;;;;;;;9.90;99.90;;;;;;8353871;28;20364;-70
2023/10/25 01:19:50;;;;;;;;;;;9.80;99.90;;;;;;8348426;28;19929;-70
2023/10/25 01:23:52;;;;;;;;;;;9.90;99.90;;;;;;8351150;28;20281;-71
2023/10/25 01:27:54;;;;;;;;;;;9.90;99.90;;;;;;8354330;28;19936;-70
2023/10/25 01:31:56;;;;;;;;;;;9.80;99.90;;;;;;8357429;28;19924;-70
2023/10/25 01:35:57;;;;;;;;;;;9.80;99.90;;;;;;8350649;28;19924;-70
2023/10/25 01:39:59;;;;;;;;;;;9.90;99.90;;;;;;8355612;28;20284;-70
2023/10/25 01:44:01;;;;;;;;;;;9.90;99.90;;;;;;8352646;28;20395;-70
2023/10/25 01:48:02;;;;;;;;;;;9.90;99.90;;;;;;8357087;28;19925;-70
2023/10/25 01:52:04;;;;;;;;;;;9.80;99.90;;;;;;8368667;28;19987;-70
2023/10/25 01:56:06;;;;;;;;;;;9.80;99.90;;;;;;8349355;28;20068;-70
2023/10/25 02:00:08;;;;;;;;;;;9.70;99.90;;;;;;8354643;28;19925;-70
2023/10/25 02:04:09;;;;;;;;;;;9.70;99.90;;;;;;8352991;28;19995;-70
2023/10/25 02:08:11;;;;;;;;;;;9.70;99.90;;;;;;8349430;28;19929;-70
2023/10/25 02:12:13;;;;;;;;;;;9.60;99.90;;;;;;8340416;28;19940;-70
2023/10/25 02:16:15;;;;;;;;;;;9.60;99.90;;;;;;8353600;28;19929;-70
2023/10/25 02:20:17;;;;;;;;;;;9.60;99.90;;;;;;8356893;28;20015;-70
2023/10/25 02:24:19;;;;;;;;;;;9.60;99.90;;;;;;8352130;28;20376;-70
2023/10/25 02:28:20;;;;;;;;;;;9.60;99.90;;;;;;8355207;28;20365;-70
2023/10/25 02:32:22;;;;;;;;;;;9.50;99.90;;;;;;8354297;28;19925;-70
2023/10/25 02:36:24;;;;;;;;;;;9.50;99.90;;;;;;8353450;28;19925;-70
2023/10/25 02:40:25;;;;;;;;;;;9.40;99.90;;;;;;8355667;28;19925;-70
2023/10/25 02:44:27;;;;;;;;;;;9.40;99.90;;;;;;8352787;28;19932;-70
2023/10/25 02:48:28;;;;;;;;;;;9.30;99.90;;;;;;8361995;28;20288;-70
2023/10/25 02:52:30;;;;;;;;;;;9.30;99.90;;;;;;8353803;28;21047;-70
2023/10/25 02:56:32;;;;;;;;;;;9.30;99.90;;;;;;8353323;28;20391;-70
2023/10/25 03:00:33;;;;;;;;;;;9.20;99.90;;;;;;8354016;28;19970;-70
2023/10/25 03:04:35;;;;;;;;;;;9.20;99.90;;;;;;8352548;28;20287;-70
2023/10/25 03:08:37;;;;;;;;;;;9.20;99.90;;;;;;8349832;28;19932;-70
2023/10/25 03:12:38;;;;;;;;;;;9.20;99.90;;;;;;8351676;28;20654;-70
2023/10/25 03:16:40;;;;;;;;;;;9.20;99.90;;;;;;8353239;28;19936;-70
2023/10/25 03:20:42;;;;;;;;;;;9.10;99.90;;;;;;8363672;28;19928;-70
2023/10/25 03:24:43;;;;;;;;;;;9.10;99.90;;;;;;8354233;28;19975;-70
2023/10/25 03:28:45;;;;;;;;;;;9.10;99.90;;;;;;8349097;28;19925;-70
2023/10/25 03:32:47;;;;;;;;;;;9.10;99.90;;;;;;8356340;28;19924;-70
2023/10/25 03:36:50;;;;;;;;;;;9.00;99.90;;;;;;8341540;28;19990;-70
2023/10/25 03:41:01;;;;;;;;;;;8.90;99.90;;;;;;8353566;28;20376;-70
2023/10/25 03:45:03;;;;;;;;;;;8.90;99.90;;;;;;8356243;28;20363;-70
2023/10/25 03:49:05;;;;;;;;;;;8.90;99.90;;;;;;8344646;28;20365;-70
2023/10/25 03:53:07;;;;;;;;;;;8.90;99.90;;;;;;8353082;28;20001;-70
2023/10/25 03:57:08;;;;;;;;;;;8.90;99.90;;;;;;8358457;28;20074;-70
2023/10/25 04:01:10;;;;;;;;;;;8.90;99.90;;;;;;8347236;28;19959;-70
2023/10/25 04:05:12;;;;;;;;;;;8.90;99.90;;;;;;8324495;28;19982;-70
2023/10/25 04:09:14;;;;;;;;;;;9.00;99.90;;;;;;8338656;28;19951;-70
2023/10/25 04:13:16;;;;;;;;;;;9.00;99.90;;;;;;8344517;28;20028;-70
2023/10/25 04:17:18;;;;;;;;;;;9.00;99.90;;;;;;8351484;28;19937;-70
2023/10/25 04:21:19;;;;;;;;;;;9.00;99.90;;;;;;8339778;28;19925;-70
2023/10/25 04:25:21;;;;;;;;;;;8.90;99.90;;;;;;8360643;28;19935;-70
2023/10/25 04:29:23;;;;;;;;;;;8.90;99.90;;;;;;8360254;28;19929;-70
2023/10/25 04:33:25;;;;;;;;;;;8.90;99.90;;;;;;8358067;28;19971;-70
2023/10/25 04:37:26;;;;;;;;;;;9.00;99.90;;;;;;8359547;28;19924;-70
2023/10/25 04:41:28;;;;;;;;;;;9.00;99.90;;;;;;8357857;28;19932;-70
2023/10/25 04:45:30;;;;;;;;;;;9.00;99.90;;;;;;8356469;28;19932;-70
2023/10/25 04:49:31;;;;;;;;;;;9.00;99.90;;;;;;8345963;28;19998;-70
2023/10/25 04:53:33;;;;;;;;;;;9.00;99.90;;;;;;8360202;28;19932;-70
2023/10/25 04:57:34;;;;;;;;;;;8.90;99.90;;;;;;8354620;28;19933;-70
2023/10/25 05:01:36;;;;;;;;;;;9.00;99.90;;;;;;8360449;28;19925;-70
2023/10/25 05:05:38;;;;;;;;;;;9.00;99.90;;;;;;8360183;28;19933;-69
2023/10/25 05:09:40;;;;;;;;;;;9.00;99.90;;;;;;8352897;28;19937;-69
2023/10/25 05:13:42;;;;;;;;;;;9.00;99.90;;;;;;8354942;28;19925;-70
2023/10/25 05:17:47;;;;;;;;;;;9.00;99.90;;;;;;8353899;28;19924;-70
2023/10/25 05:21:50;;;;;;;;;;;9.00;99.90;;;;;;8350825;28;19928;-70
2023/10/25 05:25:51;;;;;;;;;;;9.00;99.90;;;;;;8337889;28;19929;-70
2023/10/25 05:29:53;;;;;;;;;;;9.00;99.90;;;;;;8336196;28;19974;-70
2023/10/25 05:33:55;;;;;;;;;;;9.00;99.90;;;;;;8354329;28;19925;-70
2023/10/25 05:37:57;;;;;;;;;;;9.00;99.90;;;;;;8344054;28;20358;-70
2023/10/25 05:42:03;;;;;;;;;;;9.00;99.90;;;;;;8361137;28;20364;-70
2023/10/25 05:46:05;;;;;;;;;;;9.00;99.90;;;;;;8354726;28;19948;-70
2023/10/25 05:50:07;;;;;;;;;;;9.10;99.90;;;;;;8357573;28;19925;-70
2023/10/25 05:54:09;;;;;;;;;;;9.10;99.90;;;;;;8354367;28;19933;-70
2023/10/25 05:58:10;;;;;;;;;;;9.10;99.90;;;;;;8344443;28;19925;-70
2023/10/25 06:02:14;;;;;;;;;;;9.10;99.90;;;;;;8341387;28;19924;-70
2023/10/25 06:06:16;;;;;;;;;;;9.10;99.90;;;;;;8338632;28;19960;-70
2023/10/25 06:10:18;;;;;;;;;;;9.10;99.90;;;;;;8338044;28;19929;-70
2023/10/25 06:14:20;;;;;;;;;;;9.20;99.90;;;;;;8345059;28;20015;-70
2023/10/25 06:18:22;;;;;;;;;;;9.20;99.90;;;;;;8339279;28;19928;-70
2023/10/25 06:27:34;;;;;;;;;;;9.20;99.90;;;;;;8340700;28;19970;-70
2023/10/25 06:31:36;;;;;;;;;;;9.20;99.90;;;;;;8354780;28;19925;-70
2023/10/25 06:35:37;;;;;;;;;;;9.20;99.90;;;;;;8350635;28;20020;-70
2023/10/25 06:39:39;;;;;;;;;;;9.30;99.90;;;;;;8360768;28;19925;-70
2023/10/25 06:43:41;;;;;;;;;;;9.30;99.90;;;;;;8355304;28;19940;-70
2023/10/25 06:47:43;;;;;;;;;;;9.30;99.90;;;;;;8348187;28;19925;-70
2023/10/25 06:51:44;;;;;;;;;;;9.30;99.90;;;;;;8356357;28;19925;-70
2023/10/25 06:55:46;;;;;;;;;;;9.40;99.90;;;;;;8354861;28;20089;-70
2023/10/25 06:59:48;;;;;;;;;;;9.40;99.90;;;;;;8353067;28;20368;-70
2023/10/25 07:03:50;;;;;;;;;;;9.40;99.90;;;;;;8351860;28;19929;-70
2023/10/25 07:07:52;;;;;;;;;;;9.50;99.90;;;;;;8340713;28;19929;-70
2023/10/25 07:11:54;;;;;;;;;;;9.50;99.90;;;;;;8335550;28;19979;-70
2023/10/25 07:15:56;;;;;;;;;;;9.50;99.90;;;;;;8346241;28;19968;-70
2023/10/25 07:20:01;;;;;;;;;;;9.50;99.90;;;;;;8356018;28;19978;-70
2023/10/25 07:24:02;;;;;;;;;;;9.60;99.90;;;;;;8361233;28;20463;-70
2023/10/25 07:28:04;;;;;;;;;;;9.60;99.90;;;;;;8360679;28;19925;-70
2023/10/25 07:32:06;;;;;;;;;;;9.70;99.90;;;;;;8336270;28;20011;-70
2023/10/25 07:36:08;;;;;;;;;;;9.70;99.90;;;;;;8355533;28;19925;-70
2023/10/25 07:40:11;;;;;;;;;;;9.70;99.90;;;;;;8354906;28;20276;-70
2023/10/25 07:44:13;;;;;;;;;;;9.80;99.90;;;;;;8352034;28;19932;-70
2023/10/25 07:48:15;;;;;;;;;;;9.80;99.90;;;;;;8355736;28;19932;-70
2023/10/25 07:52:16;;;;;;;;;;;9.80;99.90;;;;;;8355548;28;19936;-70
2023/10/25 07:56:18;;;;;;;;;;;9.90;99.90;;;;;;8349059;28;19933;-70
2023/10/25 08:00:40;;;;;;;;;;;9.90;99.90;;;;;;8351129;28;20031;-70
2023/10/25 08:04:41;;;;;;;;;;;9.90;99.90;;;;;;8350360;28;20368;-70
2023/10/25 08:08:43;;;;;;;;;;;10.00;99.90;;;;;;8346967;28;20269;-70
2023/10/25 08:12:45;;;;;;;;;;;10.00;99.90;;;;;;8344915;28;19975;-70
2023/10/25 08:16:46;;;;;;;;;;;10.00;99.90;;;;;;8348588;28;19929;-70
2023/10/25 08:20:48;;;;;;;;;;;10.10;99.90;;;;;;8351359;28;19932;-70
2023/10/25 08:24:49;;;;;;;;;;;10.10;99.90;;;;;;8354908;28;19932;-70
2023/10/25 08:28:51;;;;;;;;;;;10.10;99.90;;;;;;8353508;28;19935;-70
2023/10/25 08:32:53;;;;;;;;;;;10.20;99.90;;;;;;8354300;28;19931;-70
2023/10/25 08:36:55;;;;;;;;;;;10.10;99.90;;;;;;8353668;28;19937;-70
2023/10/25 08:41:03;;;;;;;;;;;10.10;99.90;;;;;;8348005;28;19978;-70
2023/10/25 08:45:05;;;;;;;;;;;10.20;99.90;;;;;;8351742;28;19978;-70
2023/10/25 08:49:07;;;;;;;;;;;10.20;99.90;;;;;;8355842;28;19925;-70
2023/10/25 08:53:11;;;;;;;;;;;10.30;99.90;;;;;;8359804;28;19976;-70
2023/10/25 08:57:12;;;;;;;;;;;10.30;99.90;;;;;;8356114;28;20328;-70
2023/10/25 09:01:14;;;;;;;;;;;10.30;99.90;;;;;;8350907;28;20633;-70
2023/10/25 09:05:16;;;;;;;;;;;10.40;99.90;;;;;;8352297;28;19925;-70
2023/10/25 09:09:17;;;;;;;;;;;10.40;99.90;;;;;;8347512;28;19979;-70
2023/10/25 09:13:19;;;;;;;;;;;10.40;99.90;;;;;;8357133;28;19933;-70
2023/10/25 09:17:21;;;;;;;;;;;10.40;99.90;;;;;;8334497;28;20611;-70
2023/10/25 09:21:25;;;;;;;;;;;10.40;99.90;;;;;;8325160;28;20178;-70
2023/10/25 09:25:30;;;;;;;;;;;10.50;99.90;;;;;;8323460;28;20491;-70
2023/10/25 09:29:35;;;;;;;;;;;10.50;99.90;;;;;;8326316;28;20010;-71
2023/10/25 09:33:37;;;;;;;;;;;10.50;99.90;;;;;;8326459;28;19928;-70
2023/10/25 09:37:39;;;;;;;;;;;10.50;99.90;;;;;;8335421;28;20411;-71
2023/10/25 09:41:41;;;;;;;;;;;10.50;99.90;;;;;;8322688;28;20872;-70
2023/10/25 09:45:45;;;;;;;;;;;10.50;99.90;;;;;;8323217;28;19932;-70
2023/10/25 09:49:52;;;;;;;;;;;10.50;99.90;;;;;;8320051;28;19925;-70
2023/10/25 09:54:10;;;;;;;;;;;10.60;99.90;;;;;;8324186;28;19968;-70
2023/10/25 09:58:11;;;;;;;;;;;10.60;99.90;;;;;;8328265;28;20237;-70
2023/10/25 10:02:19;;;;;;;;;;;10.60;99.90;;;;;;8318987;28;19933;-70
2023/10/25 10:06:27;;;;;;;;;;;10.60;99.90;;;;;;8319821;28;20538;-70
2023/10/25 10:10:32;;;;;;;;;;;10.70;99.90;;;;;;8321429;28;19929;-70
2023/10/25 10:14:35;;;;;;;;;;;10.70;99.90;;;;;;8320533;28;20265;-70
2023/10/25 10:18:38;;;;;;;;;;;10.70;99.90;;;;;;8321185;28;20276;-70
2023/10/25 10:22:59;;;;;;;;;;;10.70;99.90;;;;;;8322203;28;20368;-70
2023/10/25 10:27:01;;;;;;;;;;;10.70;99.90;;;;;;8320430;28;24462;-70
2023/10/25 10:31:03;;;;;;;;;;;10.70;99.90;;;;;;8321643;28;19929;-70
2023/10/25 10:35:04;;;;;;;;;;;10.70;99.90;;;;;;8323422;28;19929;-70
2023/10/25 10:39:10;;;;;;;;;;;10.90;99.90;;;;;;8319233;28;19941;-71
2023/10/25 10:43:12;;;;;;;;;;;10.90;99.90;;;;;;8320795;28;19932;-70
2023/10/25 10:47:15;;;;;;;;;;;10.90;99.90;;;;;;8317427;28;19990;-70
2023/10/25 10:51:17;;;;;;;;;;;10.90;99.90;;;;;;8320670;28;20296;-70
2023/10/25 10:55:20;;;;;;;;;;;11.00;99.90;;;;;;8321000;28;19963;-70
2023/10/25 10:59:22;;;;;;;;;;;11.00;99.90;;;;;;8317887;28;19998;-70
2023/10/25 11:03:26;;;;;;;;;;;11.10;99.90;;;;;;8323487;28;20054;-69
2023/10/25 11:07:28;;;;;;;;;;;11.10;99.90;;;;;;8324162;28;20015;-70
2023/10/25 11:11:29;;;;;;;;;;;11.10;99.90;;;;;;8321090;28;19929;-70
2023/10/25 11:15:31;;;;;;;;;;;11.10;99.90;;;;;;8318310;28;19932;-70
2023/10/25 11:19:36;;;;;;;;;;;11.10;99.90;;;;;;8318897;28;19979;-70
2023/10/25 11:23:37;;;;;;;;;;;11.10;99.90;;;;;;8318121;28;20020;-70
2023/10/25 11:27:40;;;;;;;;;;;11.10;99.90;;;;;;8317862;28;19925;-70
2023/10/25 11:31:42;;;;;;;;;;;11.10;99.90;;;;;;8320907;28;19936;-70
2023/10/25 11:35:44;;;;;;;;;;;11.10;99.90;;;;;;8319790;28;20368;-70
2023/10/25 11:39:55;;;;;;;;;;;11.10;99.90;;;;;;8314738;28;19955;-70
2023/10/25 11:43:58;;;;;;;;;;;11.10;99.90;;;;;;8322015;28;19956;-70
2023/10/25 11:48:00;;;;;;;;;;;11.10;99.90;;;;;;8324438;28;20404;-70
2023/10/25 11:52:05;;;;;;;;;;;11.10;99.90;;;;;;8324505;28;19971;-70
2023/10/25 11:56:07;;;;;;;;;;;11.10;99.90;;;;;;8317970;28;20384;-70
2023/10/25 12:00:09;;;;;;;;;;;11.10;99.90;;;;;;8317001;28;20269;-70
2023/10/25 12:04:11;;;;;;;;;;;11.10;99.90;;;;;;8329472;28;19982;-70
2023/10/25 12:08:13;;;;;;;;;;;11.10;99.90;;;;;;8323788;28;19929;-70
2023/10/25 12:12:14;;;;;;;;;;;11.10;99.90;;;;;;8325092;28;19925;-70
2023/10/25 12:16:16;;;;;;;;;;;11.10;99.90;;;;;;8324611;28;19925;-70
2023/10/25 12:20:18;;;;;;;;;;;11.10;99.90;;;;;;8327174;28;20283;-70
2023/10/25 12:24:28;;;;;;;;;;;11.10;99.90;;;;;;8326047;28;19925;-70
2023/10/25 12:28:30;;;;;;;;;;;11.10;99.90;;;;;;8306497;28;19925;-70
2023/10/25 12:32:31;;;;;;;;;;;11.10;99.90;;;;;;8326940;28;19932;-70
2023/10/25 12:36:33;;;;;;;;;;;11.10;99.90;;;;;;8330050;28;20020;-70
2023/10/25 12:40:35;;;;;;;;;;;11.10;99.90;;;;;;8334786;28;19932;-70
2023/10/25 12:44:36;;;;;;;;;;;11.10;99.90;;;;;;8330027;28;19932;-70
2023/10/25 12:48:38;;;;;;;;;;;11.10;99.90;;;;;;8324632;28;19954;-70
2023/10/25 12:52:41;;;;;;;;;;;11.10;99.90;;;;;;8322431;28;19956;-69
2023/10/25 12:56:44;;;;;;;;;;;11.20;99.90;;;;;;8321740;28;19975;-71
2023/10/25 13:00:46;;;;;;;;;;;11.20;99.90;;;;;;8336512;28;19965;-70
2023/10/25 13:04:47;;;;;;;;;;;11.20;99.90;;;;;;8321152;28;19929;-70
2023/10/25 13:08:49;;;;;;;;;;;11.20;99.90;;;;;;8320798;28;19961;-70
2023/10/25 13:12:52;;;;;;;;;;;11.20;99.90;;;;;;8323921;28;19931;-69
2023/10/25 13:16:54;;;;;;;;;;;11.20;99.90;;;;;;8321790;28;19940;-70
2023/10/25 13:21:02;;;;;;;;;;;11.20;99.90;;;;;;8322079;28;19925;-70
2023/10/25 13:25:04;;;;;;;;;;;11.20;99.90;;;;;;8305976;28;20619;-69
2023/10/25 13:29:06;;;;;;;;;;;11.20;99.90;;;;;;8322777;28;19925;-70
2023/10/25 13:33:10;;;;;;;;;;;11.20;99.90;;;;;;8321990;28;20369;-70
2023/10/25 13:37:12;;;;;;;;;;;11.30;99.90;;;;;;8321112;28;19955;-70
2023/10/25 13:41:14;;;;;;;;;;;11.30;99.90;;;;;;8321867;28;19972;-70
2023/10/25 13:45:16;;;;;;;;;;;11.30;99.90;;;;;;8320986;28;19925;-69
2023/10/25 13:49:17;;;;;;;;;;;11.30;99.90;;;;;;8322361;28;19928;-70
2023/10/25 13:53:19;;;;;;;;;;;11.30;99.90;;;;;;8323942;28;19970;-70
2023/10/25 13:57:20;;;;;;;;;;;11.30;99.90;;;;;;8323066;28;19928;-70
2023/10/25 14:01:22;;;;;;;;;;;11.30;99.90;;;;;;8319830;28;20353;-70
2023/10/25 14:05:24;;;;;;;;;;;11.30;99.90;;;;;;8320576;28;19933;-70
2023/10/25 14:09:26;;;;;;;;;;;11.30;99.90;;;;;;8318570;28;20576;-70
2023/10/25 14:13:28;;;;;;;;;;;11.30;99.90;;;;;;8321171;28;19936;-70
2023/10/25 14:17:33;;;;;;;;;;;11.40;99.90;;;;;;8323254;28;19933;-70
2023/10/25 14:21:38;;;;;;;;;;;11.40;99.90;;;;;;8321593;28;19928;-70
2023/10/25 14:25:40;;;;;;;;;;;11.40;99.90;;;;;;8321343;28;20318;-70
2023/10/25 14:29:42;;;;;;;;;;;11.40;99.90;;;;;;8319315;28;19983;-70
2023/10/25 14:33:44;;;;;;;;;;;11.40;99.90;;;;;;8323555;28;19929;-70
2023/10/25 14:37:46;;;;;;;;;;;11.40;99.90;;;;;;8319807;28;20281;-70
2023/10/25 14:41:47;;;;;;;;;;;11.40;99.90;;;;;;8321341;28;19936;-70
2023/10/25 14:45:49;;;;;;;;;;;11.40;99.90;;;;;;8321202;28;19931;-70
2023/10/25 14:49:51;;;;;;;;;;;11.40;99.90;;;;;;8325673;28;19964;-70
2023/10/25 14:53:53;;;;;;;;;;;11.40;99.90;;;;;;8329885;28;19948;-70
2023/10/25 14:57:55;;;;;;;;;;;11.40;99.90;;;;;;8326847;28;19925;-70
2023/10/25 15:01:57;;;;;;;;;;;11.40;99.90;;;;;;8322295;28;20288;-70
2023/10/25 15:05:59;;;;;;;;;;;11.40;99.90;;;;;;8321046;28;19925;-70
2023/10/25 15:10:01;;;;;;;;;;;11.50;99.90;;;;;;8321451;28;20024;-70
2023/10/25 15:14:03;;;;;;;;;;;11.50;99.90;;;;;;8321991;28;20373;-70
2023/10/25 15:18:04;;;;;;;;;;;11.40;99.90;;;;;;8316972;28;19941;-70
2023/10/25 15:22:06;;;;;;;;;;;11.40;99.90;;;;;;8330052;28;20400;-70
2023/10/25 15:26:08;;;;;;;;;;;11.40;99.90;;;;;;8320793;28;20327;-70
2023/10/25 15:30:11;;;;;;;;;;;11.40;99.90;;;;;;8319902;28;19929;-70
2023/10/25 15:34:12;;;;;;;;;;;11.40;99.90;;;;;;8319982;28;19929;-70
2023/10/25 15:38:14;;;;;;;;;;;11.40;99.90;;;;;;8322529;28;20371;-70
2023/10/25 15:42:16;;;;;;;;;;;11.40;99.90;;;;;;8326542;28;19936;-70
2023/10/25 15:46:28;;;;;;;;;;;11.40;99.90;;;;;;8323987;28;20430;-70
2023/10/25 15:50:29;;;;;;;;;;;11.40;99.90;;;;;;8326181;28;20272;-70
2023/10/25 15:54:32;;;;;;;;;;;11.40;99.90;;;;;;8325862;28;20305;-70
2023/10/25 15:58:34;;;;;;;;;;;11.40;99.90;;;;;;8324772;28;19937;-70
2023/10/25 16:02:36;;;;;;;;;;;11.40;99.90;;;;;;8330803;28;19994;-70
2023/10/25 16:06:39;;;;;;;;;;;11.40;99.90;;;;;;8326182;28;19971;-70
2023/10/25 16:10:40;;;;;;;;;;;11.30;99.90;;;;;;8322261;28;19929;-70
2023/10/25 16:14:42;;;;;;;;;;;11.30;99.90;;;;;;8324442;28;19941;-70
2023/10/25 16:18:44;;;;;;;;;;;11.30;99.90;;;;;;8323576;28;19925;-70
2023/10/25 16:22:46;;;;;;;;;;;11.30;99.90;;;;;;8327644;28;19928;-70
2023/10/25 16:26:47;;;;;;;;;;;11.30;99.90;;;;;;8323614;28;19936;-70
2023/10/25 16:30:49;;;;;;;;;;;11.30;99.90;;;;;;8324553;28;20383;-70
2023/10/25 16:34:51;;;;;;;;;;;11.30;99.90;;;;;;8306861;28;20383;-70
2023/10/25 16:38:53;;;;;;;;;;;11.30;99.90;;;;;;8321713;28;19983;-70
2023/10/25 16:42:54;;;;;;;;;;;11.30;99.90;;;;;;8326880;28;19933;-70
2023/10/25 16:46:56;;;;;;;;;;;11.30;99.90;;;;;;8329730;28;19933;-70
2023/10/25 16:51:06;;;;;;;;;;;11.30;99.90;;;;;;8325226;28;19932;-70
2023/10/25 16:55:08;;;;;;;;;;;11.30;99.90;;;;;;8320881;28;19947;-70
2023/10/25 16:59:09;;;;;;;;;;;11.30;99.90;;;;;;8322372;28;19956;-70
2023/10/25 17:03:11;;;;;;;;;;;11.30;99.90;;;;;;8330409;28;19929;-70
2023/10/25 17:07:13;;;;;;;;;;;11.30;99.90;;;;;;8328712;28;19928;-70
2023/10/25 17:11:15;;;;;;;;;;;11.30;99.90;;;;;;8339243;28;19925;-70
2023/10/25 17:15:16;;;;;;;;;;;11.30;99.90;;;;;;8322716;28;19925;-70
2023/10/25 17:19:18;;;;;;;;;;;11.30;99.90;;;;;;8324924;28;19925;-70
2023/10/25 17:23:21;;;;;;;;;;;11.30;99.90;;;;;;8323341;28;19929;-70
2023/10/25 17:27:24;;;;;;;;;;;11.30;99.90;;;;;;8326369;28;19929;-70
2023/10/25 17:31:25;;;;;;;;;;;11.30;99.90;;;;;;8329606;28;19925;-70
2023/10/25 17:35:27;;;;;;;;;;;11.30;99.90;;;;;;8306408;28;19978;-70
2023/10/25 17:39:29;;;;;;;;;;;11.30;99.90;;;;;;8324953;28;20003;-70
2023/10/25 17:43:31;;;;;;;;;;;11.30;99.90;;;;;;8323260;28;19939;-70
2023/10/25 17:47:45;;;;;;;;;;;11.30;99.90;;;;;;8323267;28;19944;-70
2023/10/25 17:51:49;;;;;;;;;;;11.30;99.90;;;;;;8324278;28;19999;-70
2023/10/25 17:55:50;;;;;;;;;;;11.30;99.90;;;;;;8326487;28;19948;-70
2023/10/25 17:59:52;;;;;;;;;;;11.30;99.90;;;;;;8331112;28;20323;-70
2023/10/25 18:03:54;;;;;;;;;;;11.30;99.90;;;;;;8322144;28;19936;-70
2023/10/25 18:07:56;;;;;;;;;;;11.30;99.90;;;;;;8318657;28;19933;-70
2023/10/25 18:11:57;;;;;;;;;;;11.30;99.90;;;;;;8322168;28;19932;-70
2023/10/25 18:15:59;;;;;;;;;;;11.30;99.90;;;;;;8316764;28;19955;-70
2023/10/25 18:20:00;;;;;;;;;;;11.30;99.90;;;;;;8324576;28;19931;-70
2023/10/25 18:24:07;;;;;;;;;;;11.30;99.90;;;;;;8321251;28;20288;-70
2023/10/25 18:28:09;;;;;;;;;;;11.30;99.90;;;;;;8322017;28;19939;-70
2023/10/25 18:32:12;;;;;;;;;;;11.30;99.90;;;;;;8336260;28;20384;-70
2023/10/25 18:36:25;;;;;;;;;;;11.30;99.90;;;;;;8322099;28;19936;-70
2023/10/25 18:40:27;;;;;;;;;;;11.30;99.90;;;;;;8321565;28;20355;-70
2023/10/25 18:44:32;;;;;;;;;;;11.20;99.90;;;;;;8323028;28;20565;-70
2023/10/25 18:48:34;;;;;;;;;;;11.30;99.90;;;;;;8319936;28;19952;-70
2023/10/25 18:52:36;;;;;;;;;;;11.30;99.90;;;;;;8320273;28;19933;-70
2023/10/25 18:56:37;;;;;;;;;;;11.30;99.90;;;;;;8320353;28;19929;-70
2023/10/25 19:00:41;;;;;;;;;;;11.30;99.90;;;;;;8319220;28;20372;-70
2023/10/25 19:04:42;;;;;;;;;;;11.30;99.90;;;;;;8322269;28;19936;-70
2023/10/25 19:09:04;;;;;;;;;;;11.30;99.90;;;;;;8322123;28;20341;-70
2023/10/25 19:13:06;;;;;;;;;;;11.30;99.90;;;;;;8324007;28;19931;-70
2023/10/25 19:17:08;;;;;;;;;;;11.30;99.90;;;;;;8312675;28;20380;-70
2023/10/25 19:21:09;;;;;;;;;;;11.30;99.90;;;;;;8325605;28;20115;-70
2023/10/25 19:25:11;;;;;;;;;;;11.30;99.90;;;;;;8327013;28;19952;-70
2023/10/25 19:29:13;;;;;;;;;;;11.30;99.90;;;;;;8326101;28;19960;-70
2023/10/25 19:33:15;;;;;;;;;;;11.30;99.90;;;;;;8330918;28;19925;-70
2023/10/25 19:37:17;;;;;;;;;;;11.30;99.90;;;;;;8325874;28;19925;-70
2023/10/25 19:41:19;;;;;;;;;;;11.40;99.90;;;;;;8326674;28;19979;-70
2023/10/25 19:45:20;;;;;;;;;;;11.30;99.90;;;;;;8325095;28;19979;-70
2023/10/25 19:49:22;;;;;;;;;;;11.30;99.90;;;;;;8308000;28;19932;-70
2023/10/25 19:53:24;;;;;;;;;;;11.30;99.90;;;;;;8326254;28;19925;-70
2023/10/25 19:57:26;;;;;;;;;;;11.30;99.90;;;;;;8324499;28;19933;-70
2023/10/25 20:01:27;;;;;;;;;;;11.30;99.90;;;;;;8328729;28;19933;-70
2023/10/25 20:05:29;;;;;;;;;;;11.30;99.90;;;;;;8330743;28;19931;-70
2023/10/25 20:09:31;;;;;;;;;;;11.30;99.90;;;;;;8329257;28;20300;-70
2023/10/25 20:13:32;;;;;;;;;;;11.30;99.90;;;;;;8328678;28;19973;-70
2023/10/25 20:17:35;;;;;;;;;;;11.30;99.90;;;;;;8331328;28;20365;-70
2023/10/25 20:21:36;;;;;;;;;;;11.30;99.90;;;;;;8333900;28;19924;-70
2023/10/25 20:25:38;;;;;;;;;;;11.30;99.90;;;;;;8331069;28;19929;-70
2023/10/25 20:29:40;;;;;;;;;;;11.30;99.90;;;;;;8332805;28;20619;-70
2023/10/25 20:33:41;;;;;;;;;;;11.30;99.90;;;;;;8330899;28;20024;-70
2023/10/25 20:37:43;;;;;;;;;;;11.30;99.90;;;;;;8307957;28;19932;-70
2023/10/25 20:41:45;;;;;;;;;;;11.30;99.90;;;;;;8326588;28;20505;-70
2023/10/25 20:45:50;;;;;;;;;;;11.30;99.90;;;;;;8324013;28;20010;-70
2023/10/25 20:49:51;;;;;;;;;;;11.30;99.90;;;;;;8320620;28;20075;-70
2023/10/25 20:53:53;;;;;;;;;;;11.20;99.90;;;;;;8325014;28;19936;-70
2023/10/25 21:08:02;;;;;;;;;;;11.20;99.90;;;;;;8311970;28;19964;-70
2023/10/25 21:12:04;;;;;;;;;;;11.10;99.90;;;;;;8317937;28;19929;-70
2023/10/25 21:16:12;;;;;;;;;;;11.10;99.90;;;;;;8316792;28;19990;-70
2023/10/25 21:20:14;;;;;;;;;;;11.10;99.90;;;;;;8317456;28;19933;-70
2023/10/25 21:24:15;;;;;;;;;;;11.10;99.90;;;;;;8314762;28;19932;-70
2023/10/25 21:28:17;;;;;;;;;;;11.10;99.90;;;;;;8314538;28;19933;-70
2023/10/25 21:32:19;;;;;;;;;;;11.00;99.90;;;;;;8318576;28;20507;-70
2023/10/25 21:36:22;;;;;;;;;;;11.10;99.90;;;;;;8304459;28;19994;-70
2023/10/25 21:40:24;;;;;;;;;;;11.10;99.90;;;;;;8317116;28;20427;-70
2023/10/25 21:44:26;;;;;;;;;;;11.10;99.90;;;;;;8318373;28;19944;-70
2023/10/25 21:48:28;;;;;;;;;;;11.10;99.90;;;;;;8311086;28;19955;-70
2023/10/25 21:52:29;;;;;;;;;;;11.10;99.90;;;;;;8315544;28;19940;-70
2023/10/25 21:56:31;;;;;;;;;;;11.10;99.90;;;;;;8316083;28;20431;-70
2023/10/25 22:00:35;;;;;;;;;;;11.10;99.90;;;;;;8329121;28;20176;-70
2023/10/25 22:04:37;;;;;;;;;;;11.10;99.90;;;;;;8317340;28;19928;-70
2023/10/25 22:08:39;;;;;;;;;;;11.10;99.90;;;;;;8308158;28;19955;-69
2023/10/25 22:12:40;;;;;;;;;;;11.10;99.90;;;;;;8323782;28;20075;-70
2023/10/25 22:16:42;;;;;;;;;;;11.00;99.90;;;;;;8351956;28;20016;-70
2023/10/25 22:20:44;;;;;;;;;;;11.00;99.90;;;;;;8357990;28;19925;-70
2023/10/25 22:24:47;;;;;;;;;;;11.00;99.90;;;;;;8355304;28;21375;-70
2023/10/25 22:28:49;;;;;;;;;;;11.00;99.90;;;;;;8350625;28;19963;-70
2023/10/25 22:32:53;;;;;;;;;;;11.00;99.90;;;;;;8357699;28;20418;-70
2023/10/25 22:36:55;;;;;;;;;;;11.00;99.90;;;;;;8352418;28;19931;-70
2023/10/25 22:40:57;;;;;;;;;;;11.00;99.90;;;;;;8353965;28;20383;-70
2023/10/25 22:45:00;;;;;;;;;;;10.90;99.90;;;;;;8354425;28;19925;-70
2023/10/25 22:49:02;;;;;;;;;;;10.90;99.90;;;;;;8340395;28;19964;-70
2023/10/25 22:53:04;;;;;;;;;;;10.90;99.90;;;;;;8356004;28;20411;-70
2023/10/25 22:57:08;;;;;;;;;;;10.80;99.90;;;;;;8330188;28;21524;-70
2023/10/25 23:01:10;;;;;;;;;;;10.80;99.90;;;;;;8335988;28;20420;-70
2023/10/25 23:05:11;;;;;;;;;;;10.80;99.90;;;;;;8328293;28;19971;-70
2023/10/25 23:09:13;;;;;;;;;;;10.80;99.90;;;;;;8308279;28;19936;-70
2023/10/25 23:13:16;;;;;;;;;;;10.70;99.90;;;;;;8311758;28;20435;-70
2023/10/25 23:17:17;;;;;;;;;;;10.70;99.90;;;;;;8334350;28;19936;-70
2023/10/25 23:21:19;;;;;;;;;;;10.70;99.90;;;;;;8344402;28;19928;-70
2023/10/25 23:25:21;;;;;;;;;;;10.60;99.90;;;;;;8320503;28;19939;-70
2023/10/25 23:29:22;;;;;;;;;;;10.60;99.90;;;;;;8341682;28;20309;-70
2023/10/25 23:33:24;;;;;;;;;;;10.50;99.90;;;;;;8354113;28;19925;-70
2023/10/25 23:37:26;;;;;;;;;;;10.50;99.90;;;;;;8344900;28;20365;-70
2023/10/25 23:41:27;;;;;;;;;;;10.40;99.90;;;;;;8353430;28;19935;-70
2023/10/25 23:45:29;;;;;;;;;;;10.40;99.90;;;;;;8350176;28;19932;-70
2023/10/25 23:49:31;;;;;;;;;;;10.30;99.90;;;;;;8330898;28;20375;-70
2023/10/25 23:53:32;;;;;;;;;;;10.30;99.90;;;;;;8352891;28;20364;-70